createdAt,value
2022-09-28T00:01:26.013Z,10.81
2022-09-28T00:03:58.345Z,10.68
2022-09-28T00:06:30.434Z,10.57
2022-09-28T00:08:58.585Z,10.47
2022-09-28T00:11:28.361Z,10.47
2022-09-28T00:14:03.783Z,10.36
2022-09-28T00:16:37.974Z,10.33
2022-09-28T00:19:06.725Z,10.36
2022-09-28T00:21:39.243Z,10.43
2022-09-28T00:24:22.951Z,10.14
2022-09-28T00:26:56.883Z,10.10
2022-09-28T00:29:37.053Z,10.02
2022-09-28T00:32:13.447Z,10.14
2022-09-28T00:34:46.143Z,10.17
2022-09-28T00:37:15.290Z,10.00
2022-09-28T00:39:44.103Z,10.02
2022-09-28T00:42:21.266Z,10.17
2022-09-28T00:44:56.050Z,10.21
2022-09-28T00:47:51.044Z,10.13
2022-09-28T00:50:36.815Z,10.05
2022-09-28T00:53:18.518Z,10.26
2022-09-28T00:56:13.527Z,10.08
2022-09-28T00:58:48.433Z,10.14
2022-09-28T01:01:16.826Z,10.08
2022-09-28T01:03:48.125Z,10.17
2022-09-28T01:06:27.719Z,10.13
2022-09-28T01:09:05.075Z,10.22
2022-09-28T01:11:36.345Z,10.22
2022-09-28T01:14:13.589Z,10.23
2022-09-28T01:17:11.913Z,10.11
2022-09-28T01:20:05.697Z,10.12
2022-09-28T01:22:54.486Z,10.19
2022-09-28T01:25:52.519Z,10.10
2022-09-28T01:28:27.259Z,10.01
2022-09-28T01:31:27.196Z,10.06
2022-09-28T01:34:06.001Z,10.13
2022-09-28T01:36:56.853Z,9.80
2022-09-28T01:39:36.457Z,9.88
2022-09-28T01:42:21.714Z,9.75
2022-09-28T01:44:53.387Z,9.85
2022-09-28T01:47:24.527Z,9.87
2022-09-28T01:50:15.262Z,9.96
2022-09-28T01:53:11.213Z,9.71
2022-09-28T01:55:50.306Z,9.86
2022-09-28T01:59:04.078Z,9.95
2022-09-28T02:01:58.800Z,9.96
2022-09-28T02:04:51.621Z,9.73
2022-09-28T02:07:38.698Z,9.83
2022-09-28T02:10:23.362Z,9.92
2022-09-28T02:12:59.542Z,9.85
2022-09-28T02:16:10.041Z,9.91
2022-09-28T02:18:37.805Z,9.95
2022-09-28T02:21:17.581Z,9.85
2022-09-28T02:23:58.413Z,9.94
2022-09-28T02:26:38.094Z,9.89
2022-09-28T02:29:05.790Z,9.86
2022-09-28T02:31:33.542Z,9.91
2022-09-28T02:34:01.363Z,9.76
2022-09-28T02:36:30.626Z,9.91
2022-09-28T02:38:59.207Z,9.72
2022-09-28T02:42:03.298Z,9.72
2022-09-28T02:44:54.577Z,9.77
2022-09-28T02:48:08.849Z,9.76
2022-09-28T02:51:03.232Z,9.83
2022-09-28T02:53:57.312Z,9.61
2022-09-28T02:57:20.761Z,9.48
2022-09-28T03:00:20.445Z,9.76
2022-09-28T03:03:20.578Z,9.79
2022-09-28T03:06:30.796Z,9.65
2022-09-28T03:09:17.666Z,9.87
2022-09-28T03:11:59.498Z,9.77
2022-09-28T03:14:27.965Z,9.79
2022-09-28T03:16:56.482Z,9.76
2022-09-28T03:19:30.752Z,9.60
2022-09-28T03:21:59.288Z,9.89
2022-09-28T03:24:27.998Z,9.73
2022-09-28T03:26:55.692Z,9.74
2022-09-28T03:29:24.257Z,9.59
2022-09-28T03:31:51.880Z,9.55
2022-09-28T03:34:20.382Z,9.49
2022-09-28T03:36:48.011Z,9.44
2022-09-28T03:39:15.680Z,9.90
2022-09-28T03:41:43.475Z,10.02
2022-09-28T03:44:11.140Z,9.65
2022-09-28T03:46:38.791Z,9.65
2022-09-28T03:49:06.410Z,9.69
2022-09-28T03:51:34.048Z,9.65
2022-09-28T03:54:01.975Z,9.38
2022-09-28T03:56:31.488Z,9.35
2022-09-28T03:58:59.121Z,9.27
2022-09-28T04:01:26.963Z,9.48
2022-09-28T04:03:58.636Z,9.58
2022-09-28T04:06:26.863Z,9.61
2022-09-28T04:08:55.044Z,9.52
2022-09-28T04:11:22.677Z,9.51
2022-09-28T04:13:50.900Z,9.79
2022-09-28T04:16:19.130Z,9.72
2022-09-28T04:18:47.956Z,9.58
2022-09-28T04:21:19.543Z,9.49
2022-09-28T04:23:49.152Z,9.63
2022-09-28T04:26:28.546Z,9.61
2022-09-28T04:29:17.575Z,9.66
2022-09-28T04:31:55.853Z,9.48
2022-09-28T04:34:24.370Z,9.53
2022-09-28T04:36:52.016Z,9.42
2022-09-28T04:39:20.101Z,9.54
2022-09-28T04:41:49.489Z,9.58
2022-09-28T04:44:17.156Z,9.66
2022-09-28T04:46:44.778Z,9.55
2022-09-28T04:49:12.665Z,9.61
2022-09-28T04:51:40.327Z,9.54
2022-09-28T04:54:07.953Z,9.43
2022-09-28T04:56:35.589Z,9.34
2022-09-28T04:59:03.198Z,9.38
2022-09-28T05:01:31.369Z,9.51
2022-09-28T05:03:59.130Z,9.51
2022-09-28T05:06:30.643Z,9.58
2022-09-28T05:08:58.391Z,9.43
2022-09-28T05:11:26.012Z,9.85
2022-09-28T05:13:53.709Z,9.58
2022-09-28T05:16:25.278Z,9.78
2022-09-28T05:18:58.393Z,9.78
2022-09-28T05:21:29.388Z,9.65
2022-09-28T05:23:58.410Z,9.90
2022-09-28T05:26:26.915Z,10.00
2022-09-28T05:28:55.584Z,10.08
2022-09-28T05:31:23.324Z,9.96
2022-09-28T05:33:51.916Z,9.74
2022-09-28T05:36:19.982Z,9.92
2022-09-28T05:38:48.518Z,9.88
2022-09-28T05:41:17.064Z,9.78
2022-09-28T05:43:45.888Z,9.70
2022-09-28T05:46:13.638Z,9.87
2022-09-28T05:48:42.246Z,9.51
2022-09-28T05:51:10.468Z,9.88
2022-09-28T05:53:39.113Z,9.68
2022-09-28T05:56:07.714Z,9.78
2022-09-28T05:58:35.433Z,10.13
2022-09-28T06:01:04.212Z,10.01
2022-09-28T06:03:31.928Z,10.27
2022-09-28T06:06:03.379Z,10.44
2022-09-28T06:08:33.126Z,10.53
2022-09-28T06:11:02.393Z,10.70
2022-09-28T06:13:30.234Z,10.68
2022-09-28T06:15:58.875Z,10.95
2022-09-28T06:18:26.618Z,11.21
2022-09-28T06:20:54.327Z,11.21
2022-09-28T06:23:22.008Z,11.51
2022-09-28T06:25:49.695Z,11.47
2022-09-28T06:28:18.152Z,11.72
2022-09-28T06:30:48.288Z,12.13
2022-09-28T06:33:16.514Z,12.47
2022-09-28T06:35:44.232Z,12.52
2022-09-28T06:38:12.230Z,12.66
2022-09-28T06:40:40.207Z,12.85
2022-09-28T06:43:15.118Z,12.72
2022-09-28T06:45:44.219Z,12.85
2022-09-28T06:48:12.477Z,13.05
2022-09-28T06:50:43.734Z,13.28
2022-09-28T06:53:15.490Z,13.60
2022-09-28T06:55:49.207Z,14.10
2022-09-28T06:58:21.716Z,15.93
2022-09-28T07:00:52.720Z,17.68
2022-09-28T07:03:22.981Z,18.07
2022-09-28T07:05:54.541Z,15.34
2022-09-28T07:08:26.060Z,14.97
2022-09-28T07:10:58.422Z,14.47
2022-09-28T07:16:16.377Z,14.38
2022-09-28T07:18:44.038Z,14.34
2022-09-28T07:21:22.501Z,14.47
2022-09-28T07:23:54.330Z,14.74
2022-09-28T07:26:24.582Z,14.79
2022-09-28T07:28:53.929Z,15.11
2022-09-28T07:31:21.589Z,14.82
2022-09-28T07:33:51.848Z,14.84
2022-09-28T07:36:21.043Z,14.78
2022-09-28T07:38:48.694Z,15.24
2022-09-28T07:41:21.779Z,15.43
2022-09-28T07:43:49.993Z,15.24
2022-09-28T07:46:20.827Z,15.78
2022-09-28T07:48:51.832Z,16.08
2022-09-28T07:51:21.364Z,15.43
2022-09-28T07:53:48.977Z,15.64
2022-09-28T07:56:18.362Z,15.74
2022-09-28T07:58:48.725Z,15.09
2022-09-28T08:01:16.910Z,15.22
2022-09-28T08:03:48.693Z,15.54
2022-09-28T08:06:18.007Z,16.04
2022-09-28T08:08:46.046Z,16.14
2022-09-28T08:11:17.957Z,16.14
2022-09-28T08:13:46.700Z,16.46
2022-09-28T08:16:16.223Z,16.80
2022-09-28T08:18:43.941Z,16.77
2022-09-28T08:21:30.261Z,16.57
2022-09-28T08:23:57.926Z,16.46
2022-09-28T08:26:25.888Z,16.17
2022-09-28T08:28:53.555Z,16.85
2022-09-28T08:31:21.179Z,16.45
2022-09-28T08:33:54.483Z,16.51
2022-09-28T08:36:22.307Z,16.46
2022-09-28T08:38:50.724Z,16.72
2022-09-28T08:42:06.862Z,16.80
2022-09-28T08:44:57.365Z,16.88
2022-09-28T08:47:53.468Z,16.92
2022-09-28T08:50:32.315Z,16.49
2022-09-28T08:53:53.535Z,16.93
2022-09-28T08:56:47.701Z,17.20
2022-09-28T08:59:32.129Z,16.84
2022-09-28T09:02:03.982Z,17.01
2022-09-28T09:04:34.493Z,17.42
2022-09-28T09:07:43.421Z,17.11
2022-09-28T09:11:18.920Z,17.15
2022-09-28T09:14:03.254Z,16.88
2022-09-28T09:17:07.482Z,16.87
2022-09-28T09:19:55.323Z,16.05
2022-09-28T09:23:01.281Z,16.85
2022-09-28T09:25:41.178Z,17.07
2022-09-28T09:28:36.286Z,17.29
2022-09-28T09:31:26.747Z,17.11
2022-09-28T09:34:32.581Z,17.65
2022-09-28T09:37:27.946Z,17.43
2022-09-28T09:40:26.352Z,17.62
2022-09-28T09:43:21.320Z,18.04
2022-09-28T09:46:27.971Z,17.58
2022-09-28T09:49:27.329Z,17.40
2022-09-28T09:52:06.792Z,17.12
2022-09-28T09:55:02.775Z,17.73
2022-09-28T09:57:40.831Z,17.29
2022-09-28T10:00:15.521Z,17.72
2022-09-28T10:02:48.585Z,17.99
2022-09-28T10:05:27.808Z,18.08
2022-09-28T10:08:15.552Z,17.96
2022-09-28T10:11:19.454Z,17.53
2022-09-28T10:13:50.381Z,17.93
2022-09-28T10:16:20.010Z,17.78
2022-09-28T10:18:49.911Z,17.16
2022-09-28T10:21:21.795Z,17.16
2022-09-28T10:24:00.578Z,17.29
2022-09-28T10:26:40.228Z,17.25
2022-09-28T10:29:25.420Z,17.47
2022-09-28T10:31:54.824Z,17.76
2022-09-28T10:34:31.206Z,17.96
2022-09-28T10:37:10.192Z,18.25
2022-09-28T10:39:54.174Z,17.91
2022-09-28T10:42:32.847Z,17.85
2022-09-28T10:45:25.371Z,17.39
2022-09-28T10:47:53.052Z,17.53
2022-09-28T10:50:26.760Z,17.24
2022-09-28T10:52:54.906Z,17.19
2022-09-28T10:55:37.006Z,17.58
2022-09-28T10:58:33.152Z,17.59
2022-09-28T11:01:13.736Z,17.26
2022-09-28T11:03:58.886Z,17.85
2022-09-28T11:06:37.271Z,18.60
2022-09-28T11:09:30.862Z,17.89
2022-09-28T11:12:04.224Z,18.30
2022-09-28T11:14:42.451Z,17.69
2022-09-28T11:17:41.718Z,18.21
2022-09-28T11:20:27.799Z,17.98
2022-09-28T11:23:00.859Z,18.53
2022-09-28T11:25:31.453Z,18.64
2022-09-28T11:28:05.734Z,19.30
2022-09-28T11:30:44.625Z,18.95
2022-09-28T11:33:33.876Z,18.95
2022-09-28T11:36:13.444Z,19.29
2022-09-28T11:39:06.388Z,18.91
2022-09-28T11:42:01.692Z,18.90
2022-09-28T11:44:48.953Z,19.00
2022-09-28T11:47:57.703Z,18.64
2022-09-28T11:50:47.878Z,18.63
2022-09-28T11:53:31.716Z,18.75
2022-09-28T11:56:36.569Z,18.91
2022-09-28T11:59:15.026Z,18.68
2022-09-28T12:02:25.744Z,18.62
2022-09-28T12:05:03.104Z,18.44
2022-09-28T12:07:55.061Z,18.93
2022-09-28T12:11:09.973Z,18.54
2022-09-28T12:13:48.314Z,18.81
2022-09-28T12:17:07.328Z,19.23
2022-09-28T12:20:20.162Z,18.68
2022-09-28T12:23:07.496Z,18.31
2022-09-28T12:25:46.987Z,18.62
2022-09-28T12:28:40.227Z,18.63
2022-09-28T12:31:39.226Z,18.79
2022-09-28T12:34:10.447Z,18.36
2022-09-28T12:37:33.338Z,18.98
2022-09-28T12:40:42.280Z,18.74
2022-09-28T12:43:54.659Z,18.96
2022-09-28T12:47:06.168Z,18.75
2022-09-28T12:53:16.501Z,18.53
2022-09-28T12:56:01.143Z,18.10
2022-09-28T12:59:08.374Z,18.33
2022-09-28T13:02:19.696Z,18.57
2022-09-28T13:05:36.589Z,18.56
2022-09-28T13:08:31.134Z,18.80
2022-09-28T13:12:09.900Z,18.16
2022-09-28T13:15:08.760Z,18.60
2022-09-28T13:18:03.898Z,18.53
2022-09-28T13:21:26.374Z,18.35
2022-09-28T13:24:14.361Z,18.07
2022-09-28T13:26:48.809Z,18.20
2022-09-28T13:29:20.398Z,18.07
2022-09-28T13:31:57.776Z,18.07
2022-09-28T13:34:33.014Z,18.43
2022-09-28T13:37:21.981Z,18.39
2022-09-28T13:40:06.226Z,18.50
2022-09-28T13:43:09.864Z,18.31
2022-09-28T13:45:54.066Z,18.34
2022-09-28T13:49:13.274Z,18.41
2022-09-28T13:52:06.287Z,18.16
2022-09-28T13:55:17.284Z,18.12
2022-09-28T13:57:58.193Z,17.69
2022-09-28T14:00:46.533Z,17.61
2022-09-28T14:03:28.897Z,17.68
2022-09-28T14:06:33.775Z,17.83
2022-09-28T14:09:16.067Z,17.88
2022-09-28T14:11:53.934Z,17.72
2022-09-28T14:14:30.072Z,17.53
2022-09-28T14:17:27.351Z,17.56
2022-09-28T14:20:11.419Z,17.49
2022-09-28T14:23:37.837Z,17.49
2022-09-28T14:27:27.940Z,17.35
2022-09-28T14:30:11.585Z,17.41
2022-09-28T14:32:50.708Z,17.53
2022-09-28T14:35:42.058Z,17.42
2022-09-28T14:38:49.736Z,17.39
2022-09-28T14:41:18.172Z,17.53
2022-09-28T14:43:45.770Z,17.96
2022-09-28T14:46:17.376Z,18.09
2022-09-28T14:48:54.572Z,18.25
2022-09-28T14:51:33.073Z,18.06
2022-09-28T14:54:22.378Z,18.04
2022-09-28T14:56:52.685Z,17.76
2022-09-28T14:59:36.292Z,17.65
2022-09-28T15:02:22.954Z,17.39
2022-09-28T15:05:14.118Z,17.56
2022-09-28T15:07:52.290Z,17.61
2022-09-28T15:10:49.654Z,17.35
2022-09-28T15:13:28.790Z,17.17
2022-09-28T15:16:11.614Z,17.10
2022-09-28T15:19:22.928Z,17.16
2022-09-28T15:21:51.409Z,17.13
2022-09-28T15:24:35.599Z,17.36
2022-09-28T15:27:16.878Z,17.20
2022-09-28T15:29:59.838Z,17.03
2022-09-28T15:32:31.810Z,17.08
2022-09-28T15:35:20.679Z,16.96
2022-09-28T15:37:52.210Z,16.98
2022-09-28T15:40:51.092Z,16.87
2022-09-28T15:43:34.704Z,16.81
2022-09-28T15:46:13.847Z,16.74
2022-09-28T15:48:59.548Z,16.67
2022-09-28T15:51:28.773Z,16.58
2022-09-28T15:54:21.719Z,16.61
2022-09-28T15:57:02.051Z,16.32
2022-09-28T15:59:37.127Z,16.20
2022-09-28T16:02:19.543Z,16.20
2022-09-28T16:04:58.950Z,16.02
2022-09-28T16:07:41.769Z,16.07
2022-09-28T16:10:12.295Z,16.02
2022-09-28T16:12:48.699Z,15.95
2022-09-28T16:15:31.680Z,15.83
2022-09-28T16:18:18.344Z,15.80
2022-09-28T16:20:56.441Z,15.79
2022-09-28T16:23:34.165Z,15.64
2022-09-28T16:26:07.952Z,15.63
2022-09-28T16:28:42.589Z,15.56
2022-09-28T16:31:17.245Z,15.69
2022-09-28T16:34:02.415Z,15.61
2022-09-28T16:36:45.404Z,15.53
2022-09-28T16:39:17.561Z,15.43
2022-09-28T16:42:03.248Z,15.39
2022-09-28T16:44:36.539Z,15.34
2022-09-28T16:47:05.139Z,15.42
2022-09-28T16:49:34.063Z,15.31
2022-09-28T16:52:03.428Z,15.13
2022-09-28T16:54:51.181Z,15.17
2022-09-28T16:57:18.842Z,15.14
2022-09-28T16:59:47.324Z,15.23
2022-09-28T17:02:46.725Z,15.21
2022-09-28T17:05:19.446Z,15.36
2022-09-28T17:08:05.068Z,15.25
2022-09-28T17:11:12.601Z,15.33
2022-09-28T17:13:35.265Z,15.26
2022-09-28T17:16:11.458Z,15.14
2022-09-28T17:18:40.670Z,15.19
2022-09-28T17:21:20.732Z,15.06
2022-09-28T17:23:50.627Z,15.04
2022-09-28T17:26:34.692Z,15.05
2022-09-28T17:29:03.080Z,14.99
2022-09-28T17:31:31.218Z,15.07
2022-09-28T17:33:58.981Z,14.91
2022-09-28T17:36:27.122Z,14.94
2022-09-28T17:38:54.740Z,15.04
2022-09-28T17:41:22.414Z,14.98
2022-09-28T17:43:50.066Z,14.80
2022-09-28T17:46:33.665Z,14.89
2022-09-28T17:49:05.022Z,14.87
2022-09-28T17:51:39.636Z,14.89
2022-09-28T17:54:11.241Z,14.75
2022-09-28T17:56:42.738Z,14.77
2022-09-28T17:59:17.799Z,14.78
2022-09-28T18:01:48.425Z,14.73
2022-09-28T18:04:39.633Z,14.64
2022-09-28T18:07:05.314Z,14.70
2022-09-28T18:09:32.938Z,14.76
2022-09-28T18:12:05.404Z,14.76
2022-09-28T18:14:33.104Z,14.72
2022-09-28T18:17:00.771Z,14.69
2022-09-28T18:19:31.973Z,14.68
2022-09-28T18:22:01.491Z,14.70
2022-09-28T18:24:29.742Z,14.78
2022-09-28T18:26:57.372Z,14.70
2022-09-28T18:29:31.014Z,14.70
2022-09-28T18:32:02.607Z,14.73
2022-09-28T18:34:31.270Z,14.73
2022-09-28T18:36:58.941Z,14.74
2022-09-28T18:39:26.830Z,14.63
2022-09-28T18:41:54.622Z,14.47
2022-09-28T18:44:22.572Z,14.67
2022-09-28T18:46:51.727Z,14.37
2022-09-28T18:49:19.510Z,14.40
2022-09-28T18:51:47.659Z,14.53
2022-09-28T18:54:17.234Z,14.38
2022-09-28T18:56:44.871Z,14.31
2022-09-28T18:59:12.673Z,14.05
2022-09-28T19:01:42.937Z,13.97
2022-09-28T19:04:12.078Z,13.91
2022-09-28T19:06:42.928Z,13.99
2022-09-28T19:09:11.228Z,13.70
2022-09-28T19:11:42.412Z,13.41
2022-09-28T19:14:15.751Z,13.37
2022-09-28T19:16:45.606Z,13.53
2022-09-28T19:19:20.161Z,13.30
2022-09-28T19:21:50.263Z,13.15
2022-09-28T19:24:19.961Z,13.15
2022-09-28T19:26:49.670Z,12.91
2022-09-28T19:29:20.662Z,12.90
2022-09-28T19:31:52.005Z,13.00
2022-09-28T19:34:24.460Z,13.20
2022-09-28T19:36:53.106Z,12.97
2022-09-28T19:39:21.664Z,13.09
2022-09-28T19:41:54.431Z,13.06
2022-09-28T19:44:27.367Z,13.05
2022-09-28T19:47:07.606Z,12.99
2022-09-28T19:49:40.437Z,12.94
2022-09-28T19:52:17.478Z,12.86
2022-09-28T19:54:56.941Z,12.85
2022-09-28T19:57:29.341Z,12.82
2022-09-28T20:00:03.108Z,12.89
2022-09-28T20:02:34.986Z,12.79
2022-09-28T20:05:04.352Z,13.05
2022-09-28T20:07:36.252Z,12.73
2022-09-28T20:10:06.530Z,12.77
2022-09-28T20:12:35.285Z,12.65
2022-09-28T20:15:05.413Z,12.78
2022-09-28T20:17:36.042Z,12.79
2022-09-28T20:20:05.937Z,12.86
2022-09-28T20:22:35.408Z,12.66
2022-09-28T20:25:04.298Z,12.69
2022-09-28T20:27:32.943Z,12.64
2022-09-28T20:30:01.724Z,12.75
2022-09-28T20:32:35.422Z,12.65
2022-09-28T20:35:04.470Z,12.60
2022-09-28T20:37:34.222Z,12.81
2022-09-28T20:40:03.013Z,12.64
2022-09-28T20:42:32.840Z,12.52
2022-09-28T20:45:01.592Z,12.70
2022-09-28T20:47:30.218Z,12.55
2022-09-28T20:49:59.608Z,12.70
2022-09-28T20:52:28.215Z,12.65
2022-09-28T20:54:56.760Z,12.79
2022-09-28T20:57:25.364Z,12.57
2022-09-28T20:59:55.037Z,12.71
2022-09-28T21:02:22.998Z,12.43
2022-09-28T21:04:50.766Z,12.56
2022-09-28T21:07:20.311Z,12.44
2022-09-28T21:09:50.624Z,12.60
2022-09-28T21:12:19.359Z,12.40
2022-09-28T21:14:47.062Z,12.48
2022-09-28T21:17:16.553Z,12.39
2022-09-28T21:19:44.204Z,12.59
2022-09-28T21:22:13.760Z,12.40
2022-09-28T21:24:41.512Z,12.48
2022-09-28T21:27:09.209Z,12.41
2022-09-28T21:29:38.597Z,12.39
2022-09-28T21:32:08.315Z,12.29
2022-09-28T21:34:36.962Z,12.38
2022-09-28T21:37:05.516Z,12.61
2022-09-28T21:39:34.245Z,12.43
2022-09-28T21:42:03.750Z,12.35
2022-09-28T21:44:31.404Z,12.69
2022-09-28T21:46:59.949Z,12.34
2022-09-28T21:49:29.528Z,12.47
2022-09-28T21:51:58.009Z,12.32
2022-09-28T21:54:26.522Z,12.49
2022-09-28T21:56:54.188Z,12.46
2022-09-28T21:59:21.902Z,12.41
2022-09-28T22:01:50.475Z,12.49
2022-09-28T22:04:20.483Z,12.27
2022-09-28T22:06:49.404Z,12.21
2022-09-28T22:09:17.957Z,12.43
2022-09-28T22:11:45.687Z,12.50
2022-09-28T22:14:14.268Z,12.28
2022-09-28T22:16:42.071Z,12.42
2022-09-28T22:19:10.589Z,12.56
2022-09-28T22:21:39.165Z,12.42
2022-09-28T22:24:09.647Z,12.43
2022-09-28T22:26:39.600Z,12.34
2022-09-28T22:29:10.576Z,12.36
2022-09-28T22:31:41.594Z,12.43
2022-09-28T22:34:10.144Z,12.50
2022-09-28T22:36:38.600Z,12.58
2022-09-28T22:39:06.497Z,12.62
2022-09-28T22:41:34.325Z,12.55
2022-09-28T22:44:02.867Z,12.37
2022-09-28T22:46:33.735Z,12.55
2022-09-28T22:49:02.480Z,12.56
2022-09-28T22:51:33.093Z,12.56
2022-09-28T22:54:01.320Z,12.45
2022-09-28T22:56:30.358Z,12.33
2022-09-28T22:58:59.370Z,12.46
2022-09-28T23:01:30.765Z,12.43
2022-09-28T23:03:59.740Z,12.46
2022-09-28T23:06:30.950Z,12.40
2022-09-28T23:09:01.044Z,12.58
2022-09-28T23:11:30.328Z,12.47
2022-09-28T23:13:59.820Z,12.22
2022-09-28T23:16:28.009Z,12.27
2022-09-28T23:18:57.298Z,12.38
2022-09-28T23:21:28.220Z,12.30
2022-09-28T23:24:01.714Z,12.26
2022-09-28T23:26:34.486Z,12.38
2022-09-28T23:29:04.321Z,12.28
2022-09-28T23:31:34.173Z,12.34
2022-09-28T23:34:06.115Z,12.27
2022-09-28T23:36:34.996Z,12.26
2022-09-28T23:39:04.876Z,12.19
2022-09-28T23:41:33.381Z,12.17
2022-09-28T23:44:02.141Z,12.25
2022-09-28T23:46:30.089Z,12.26
2022-09-28T23:48:58.549Z,12.23
2022-09-28T23:51:26.300Z,12.17
2022-09-28T23:53:54.034Z,12.11
2022-09-28T23:56:22.620Z,12.04
2022-09-28T23:58:50.440Z,12.11
